createdAt,value
2023-02-27T00:00:34.802Z,100363.81
2023-02-27T00:01:16.418Z,100365.78
2023-02-27T00:01:58.112Z,100413.75
2023-02-27T00:02:39.766Z,100340.81
2023-02-27T00:03:21.458Z,100349.28
2023-02-27T00:04:03.241Z,100402.72
2023-02-27T00:04:45.278Z,100388.31
2023-02-27T00:05:26.975Z,100394.69
2023-02-27T00:06:08.700Z,100388.03
2023-02-27T00:06:50.336Z,100392.94
2023-02-27T00:07:31.997Z,100379.59
2023-02-27T00:08:13.722Z,100408.28
2023-02-27T00:08:55.324Z,100397.84
2023-02-27T00:09:38.055Z,100374.22
2023-02-27T00:10:19.813Z,100383.78
2023-02-27T00:11:01.568Z,100403.06
2023-02-27T00:11:43.364Z,100404.00
2023-02-27T00:12:25.038Z,100403.34
2023-02-27T00:13:07.125Z,100337.19
2023-02-27T00:13:49.190Z,100373.91
2023-02-27T00:14:30.760Z,100402.50
2023-02-27T00:15:18.458Z,100380.09
2023-02-27T00:16:00.074Z,100388.88
2023-02-27T00:16:41.821Z,100403.34
2023-02-27T00:17:25.861Z,100379.78
2023-02-27T00:18:08.205Z,100391.03
2023-02-27T00:18:49.855Z,100398.38
2023-02-27T00:19:31.526Z,100398.47
2023-02-27T00:20:15.865Z,100398.25
2023-02-27T00:20:57.476Z,100411.16
2023-02-27T00:21:40.262Z,100385.53
2023-02-27T00:22:21.802Z,100392.31
2023-02-27T00:23:07.380Z,100399.28
2023-02-27T00:23:49.098Z,100396.56
2023-02-27T00:24:30.674Z,100406.69
2023-02-27T00:25:13.171Z,100404.94
2023-02-27T00:25:55.654Z,100383.63
2023-02-27T00:26:37.940Z,100328.13
2023-02-27T00:27:19.547Z,100409.84
2023-02-27T00:28:01.375Z,100386.16
2023-02-27T00:28:43.024Z,100404.94
2023-02-27T00:29:24.736Z,100388.66
2023-02-27T00:30:09.561Z,100401.59
2023-02-27T00:30:51.273Z,100398.47
2023-02-27T00:31:33.126Z,100364.94
2023-02-27T00:32:15.545Z,100400.13
2023-02-27T00:32:57.223Z,100388.50
2023-02-27T00:33:38.873Z,100408.97
2023-02-27T00:34:23.467Z,100391.66
2023-02-27T00:35:10.128Z,100398.75
2023-02-27T00:35:56.194Z,100377.03
2023-02-27T00:36:37.845Z,100396.50
2023-02-27T00:37:19.460Z,100415.28
2023-02-27T00:38:02.384Z,100379.44
2023-02-27T00:38:44.001Z,100403.94
2023-02-27T00:39:25.703Z,100402.09
2023-02-27T00:40:08.111Z,100324.53
2023-02-27T00:40:49.792Z,100328.41
2023-02-27T00:41:31.752Z,100378.28
2023-02-27T00:42:13.461Z,100308.94
2023-02-27T00:42:55.329Z,100402.72
2023-02-27T00:43:36.949Z,100380.28
2023-02-27T00:44:18.673Z,100388.69
2023-02-27T00:45:00.891Z,100390.38
2023-02-27T00:45:42.598Z,100404.59
2023-02-27T00:46:24.335Z,100398.66
2023-02-27T00:47:06.467Z,100403.00
2023-02-27T00:47:48.148Z,100324.44
2023-02-27T00:48:30.248Z,100370.25
2023-02-27T00:49:11.926Z,100397.06
2023-02-27T00:49:53.518Z,100377.75
2023-02-27T00:50:35.235Z,100387.50
2023-02-27T00:51:16.863Z,100396.88
2023-02-27T00:51:58.534Z,100392.59
2023-02-27T00:52:40.650Z,100372.00
2023-02-27T00:53:23.103Z,100371.47
2023-02-27T00:54:04.771Z,100390.38
2023-02-27T00:54:46.388Z,100373.69
2023-02-27T00:55:27.974Z,100398.75
2023-02-27T00:56:09.572Z,100397.47
2023-02-27T00:56:51.155Z,100397.72
2023-02-27T00:57:33.232Z,100407.09
2023-02-27T00:58:15.000Z,100396.69
2023-02-27T00:58:56.641Z,100348.34
2023-02-27T00:59:38.282Z,100412.31
2023-02-27T01:00:20.271Z,100394.09
2023-02-27T01:01:01.940Z,100229.84
2023-02-27T01:01:44.496Z,100372.66
2023-02-27T01:02:26.480Z,100389.09
2023-02-27T01:03:10.695Z,100384.56
2023-02-27T01:03:52.363Z,100403.19
2023-02-27T01:04:33.955Z,100378.50
2023-02-27T01:05:15.589Z,100385.91
2023-02-27T01:05:58.148Z,100388.50
2023-02-27T01:06:40.184Z,100381.84
2023-02-27T01:07:21.871Z,100394.56
2023-02-27T01:08:03.783Z,100391.88
2023-02-27T01:08:45.446Z,100386.75
2023-02-27T01:09:27.121Z,100395.41
2023-02-27T01:10:10.725Z,100388.69
2023-02-27T01:10:57.043Z,100405.28
2023-02-27T01:11:38.730Z,100374.19
2023-02-27T01:12:20.430Z,100372.41
2023-02-27T01:13:02.202Z,100381.94
2023-02-27T01:13:46.128Z,100367.03
2023-02-27T01:14:28.099Z,100392.78
2023-02-27T01:15:11.384Z,100391.88
2023-02-27T01:15:52.995Z,100374.31
2023-02-27T01:16:34.699Z,100374.16
2023-02-27T01:17:16.351Z,100388.59
2023-02-27T01:17:58.066Z,100378.78
2023-02-27T01:18:40.594Z,100386.31
2023-02-27T01:19:22.221Z,100381.84
2023-02-27T01:20:05.049Z,100390.59
2023-02-27T01:20:46.679Z,100373.78
2023-02-27T01:21:28.726Z,100378.25
2023-02-27T01:22:10.584Z,100392.81
2023-02-27T01:22:52.235Z,100402.31
2023-02-27T01:23:34.009Z,100385.25
2023-02-27T01:24:15.642Z,100384.50
2023-02-27T01:24:57.248Z,100390.22
2023-02-27T01:25:38.970Z,100383.06
2023-02-27T01:26:20.835Z,100386.22
2023-02-27T01:27:02.542Z,100390.59
2023-02-27T01:27:44.208Z,100382.03
2023-02-27T01:28:25.910Z,100388.28
2023-02-27T01:29:07.740Z,100383.00
2023-02-27T01:29:49.412Z,100378.34
2023-02-27T01:30:31.088Z,100382.25
2023-02-27T01:31:13.161Z,100387.09
2023-02-27T01:31:54.916Z,100375.75
2023-02-27T01:32:36.735Z,100381.88
2023-02-27T01:33:18.897Z,100362.03
2023-02-27T01:34:00.662Z,100339.75
2023-02-27T01:34:42.522Z,100390.63
2023-02-27T01:35:24.153Z,100367.97
2023-02-27T01:36:06.198Z,100378.28
2023-02-27T01:36:47.765Z,100366.00
2023-02-27T01:37:30.945Z,100326.66
2023-02-27T01:38:12.668Z,100292.25
2023-02-27T01:38:55.564Z,100382.31
2023-02-27T01:39:37.204Z,100367.78
2023-02-27T01:40:20.956Z,100366.47
2023-02-27T01:41:04.391Z,100349.13
2023-02-27T01:41:47.643Z,100377.94
2023-02-27T01:42:29.296Z,100304.59
2023-02-27T01:43:16.825Z,100383.56
2023-02-27T01:44:12.832Z,100300.59
2023-02-27T01:45:12.478Z,100377.44
2023-02-27T01:45:54.974Z,100349.78
2023-02-27T01:46:36.783Z,100360.69
2023-02-27T01:47:18.467Z,100372.94
2023-02-27T01:48:05.127Z,100379.06
2023-02-27T01:48:48.389Z,100373.06
2023-02-27T01:49:33.625Z,100363.88
2023-02-27T01:50:17.244Z,100369.72
2023-02-27T01:51:01.754Z,100376.59
2023-02-27T01:51:47.800Z,100329.81
2023-02-27T01:52:31.393Z,100369.44
2023-02-27T01:53:13.691Z,100366.13
2023-02-27T01:53:56.313Z,100366.84
2023-02-27T01:54:40.391Z,100375.84
2023-02-27T01:55:23.317Z,100353.94
2023-02-27T01:56:10.356Z,100373.16
2023-02-27T01:56:52.455Z,100373.25
2023-02-27T01:57:35.885Z,100372.41
2023-02-27T01:58:17.750Z,100381.88
2023-02-27T01:59:03.878Z,100381.50
2023-02-27T01:59:45.569Z,100383.00
2023-02-27T02:00:27.246Z,100377.88
2023-02-27T02:01:08.960Z,100371.66
2023-02-27T02:01:51.590Z,100389.13
2023-02-27T02:02:47.500Z,100390.53
2023-02-27T02:03:47.788Z,100385.31
2023-02-27T02:04:33.216Z,100359.53
2023-02-27T02:05:15.025Z,100383.09
2023-02-27T02:05:59.462Z,100346.84
2023-02-27T02:06:46.916Z,100368.81
2023-02-27T02:07:29.578Z,100383.28
2023-02-27T02:08:20.076Z,100357.75
2023-02-27T02:09:03.012Z,100368.06
2023-02-27T02:09:48.931Z,100349.53
2023-02-27T02:10:32.137Z,100382.06
2023-02-27T02:11:16.129Z,100371.19
2023-02-27T02:12:00.754Z,100342.66
2023-02-27T02:12:43.687Z,100347.75
2023-02-27T02:13:25.627Z,100378.06
2023-02-27T02:14:10.767Z,100374.53
2023-02-27T02:14:54.548Z,100353.75
2023-02-27T02:15:41.832Z,100378.28
2023-02-27T02:16:35.295Z,100373.19
2023-02-27T02:17:45.508Z,100362.97
2023-02-27T02:18:50.376Z,100379.50
2023-02-27T02:19:50.534Z,100323.19
2023-02-27T02:20:50.807Z,100379.41
2023-02-27T02:22:07.901Z,100340.34
2023-02-27T02:23:04.425Z,100383.28
2023-02-27T02:24:07.523Z,100384.97
2023-02-27T02:25:03.997Z,100384.97
2023-02-27T02:25:57.768Z,100385.03
2023-02-27T02:26:57.463Z,100388.69
2023-02-27T02:27:55.350Z,100386.28
2023-02-27T02:29:04.418Z,100392.13
2023-02-27T02:30:11.067Z,100392.97
2023-02-27T02:31:30.878Z,100390.38
2023-02-27T02:32:12.666Z,100381.00
2023-02-27T02:33:22.742Z,100396.78
2023-02-27T02:34:07.765Z,100396.50
2023-02-27T02:34:49.405Z,100391.31
2023-02-27T02:35:49.440Z,100394.84
2023-02-27T02:37:08.478Z,100392.41
2023-02-27T02:38:22.106Z,100372.84
2023-02-27T02:39:22.433Z,100390.00
2023-02-27T02:40:27.008Z,100395.19
2023-02-27T02:41:20.156Z,100390.19
2023-02-27T02:42:10.450Z,100396.13
2023-02-27T02:42:58.506Z,100406.63
2023-02-27T02:43:57.439Z,100398.94
2023-02-27T02:44:55.109Z,100392.16
2023-02-27T02:46:00.927Z,100399.97
2023-02-27T02:46:52.099Z,100404.31
2023-02-27T02:47:37.492Z,100404.41
2023-02-27T02:48:28.084Z,100398.38
2023-02-27T02:49:19.394Z,100384.00
2023-02-27T02:50:13.873Z,100381.00
2023-02-27T02:51:13.665Z,100393.25
2023-02-27T02:52:08.877Z,100400.13
2023-02-27T02:53:36.175Z,100396.53
2023-02-27T02:54:33.669Z,100388.06
2023-02-27T02:55:42.483Z,100398.53
2023-02-27T02:56:31.740Z,100363.81
2023-02-27T02:57:27.068Z,100392.31
2023-02-27T02:58:16.699Z,100321.53
2023-02-27T02:59:08.487Z,100363.38
2023-02-27T03:00:02.202Z,100401.63
2023-02-27T03:00:50.943Z,100395.13
2023-02-27T03:01:39.413Z,100410.63
2023-02-27T03:02:35.728Z,100394.50
2023-02-27T03:03:31.453Z,100407.00
2023-02-27T03:04:35.004Z,100401.81
2023-02-27T03:05:24.564Z,100393.75
2023-02-27T03:06:13.906Z,100401.81
2023-02-27T03:07:16.902Z,100395.88
2023-02-27T03:08:06.262Z,100392.91
2023-02-27T03:08:59.074Z,100405.72
2023-02-27T03:09:54.574Z,100403.13
2023-02-27T03:10:46.639Z,100402.09
2023-02-27T03:11:34.222Z,100360.63
2023-02-27T03:12:21.373Z,100408.13
2023-02-27T03:13:08.821Z,100381.94
2023-02-27T03:14:30.814Z,100403.00
2023-02-27T03:15:18.886Z,100390.50
2023-02-27T03:16:17.956Z,100402.28
2023-02-27T03:17:05.565Z,100405.91
2023-02-27T03:18:04.454Z,100381.59
2023-02-27T03:19:08.061Z,100401.56
2023-02-27T03:19:52.513Z,100416.31
2023-02-27T03:20:45.389Z,100409.44
2023-02-27T03:21:49.639Z,100399.97
2023-02-27T03:22:37.643Z,100400.81
2023-02-27T03:23:25.193Z,100399.88
2023-02-27T03:24:12.819Z,100405.81
2023-02-27T03:24:59.042Z,100407.69
2023-02-27T03:25:46.078Z,100401.06
2023-02-27T03:26:34.919Z,100390.03
2023-02-27T03:27:18.951Z,100407.19
2023-02-27T03:28:09.722Z,100399.88
2023-02-27T03:29:04.548Z,100323.13
2023-02-27T03:29:58.135Z,100405.91
2023-02-27T03:30:53.455Z,100411.13
2023-02-27T03:31:57.786Z,100409.44
2023-02-27T03:32:52.802Z,100409.44
2023-02-27T03:33:50.226Z,100401.63
2023-02-27T03:34:35.469Z,100404.25
2023-02-27T03:35:22.652Z,100394.84
2023-02-27T03:36:04.161Z,100407.84
2023-02-27T03:37:06.664Z,100416.66
2023-02-27T03:38:01.116Z,100412.59
2023-02-27T03:39:00.680Z,100416.31
2023-02-27T03:39:49.696Z,100415.47
2023-02-27T03:40:52.209Z,100420.84
2023-02-27T03:41:52.283Z,100379.91
2023-02-27T03:43:18.777Z,100420.84
2023-02-27T03:44:39.183Z,100425.13
2023-02-27T03:45:35.630Z,100394.19
2023-02-27T03:46:21.447Z,100437.28
2023-02-27T03:47:03.202Z,100424.38
2023-02-27T03:47:45.206Z,100421.78
2023-02-27T03:48:27.996Z,100413.63
2023-02-27T03:49:09.842Z,100419.28
2023-02-27T03:49:51.497Z,100359.84
2023-02-27T03:50:35.794Z,100405.63
2023-02-27T03:51:20.924Z,100416.03
2023-02-27T03:52:03.901Z,100416.13
2023-02-27T03:52:46.121Z,100414.47
2023-02-27T03:53:30.379Z,100428.00
2023-02-27T03:54:30.658Z,100386.78
2023-02-27T03:55:26.610Z,100431.53
2023-02-27T03:56:10.129Z,100409.53
2023-02-27T03:57:02.065Z,100413.13
2023-02-27T03:57:46.443Z,100409.63
2023-02-27T03:58:28.273Z,100431.34
2023-02-27T03:59:10.760Z,100419.66
2023-02-27T03:59:57.774Z,100416.97
2023-02-27T04:00:39.448Z,100355.03
2023-02-27T04:01:21.783Z,100433.28
2023-02-27T04:02:04.603Z,100420.59
2023-02-27T04:02:52.722Z,100425.59
2023-02-27T04:03:46.209Z,100434.50
2023-02-27T04:04:33.008Z,100428.22
2023-02-27T04:05:28.509Z,100423.84
2023-02-27T04:06:37.771Z,100439.53
2023-02-27T04:07:43.172Z,100432.56
2023-02-27T04:08:56.320Z,100427.25
2023-02-27T04:10:05.600Z,100414.28
2023-02-27T04:10:59.053Z,100446.41
2023-02-27T04:12:03.066Z,100434.59
2023-02-27T04:13:09.254Z,100437.78
2023-02-27T04:14:06.779Z,100436.94
2023-02-27T04:15:18.743Z,100442.13
2023-02-27T04:16:38.265Z,100419.66
2023-02-27T04:17:29.592Z,100442.13
2023-02-27T04:18:19.834Z,100443.91
2023-02-27T04:19:31.656Z,100446.00
2023-02-27T04:20:20.856Z,100441.66
2023-02-27T04:21:19.037Z,100443.31
2023-02-27T04:22:19.965Z,100373.00
2023-02-27T04:23:10.524Z,100362.25
2023-02-27T04:24:03.417Z,100448.25
2023-02-27T04:25:13.388Z,100436.63
2023-02-27T04:26:13.694Z,100451.78
2023-02-27T04:27:20.282Z,100453.63
2023-02-27T04:28:28.075Z,100397.63
2023-02-27T04:29:23.293Z,100459.00
2023-02-27T04:30:08.089Z,100452.97
2023-02-27T04:31:02.742Z,100380.19
2023-02-27T04:31:57.082Z,100450.47
2023-02-27T04:33:00.690Z,100413.31
2023-02-27T04:33:52.030Z,100429.09
2023-02-27T04:34:42.276Z,100462.75
2023-02-27T04:35:32.193Z,100460.16
2023-02-27T04:36:18.430Z,100447.50
2023-02-27T04:37:08.837Z,100464.31
2023-02-27T04:37:59.614Z,100388.34
2023-02-27T04:38:49.395Z,100459.19
2023-02-27T04:39:38.518Z,100469.34
2023-02-27T04:40:27.451Z,100454.31
2023-02-27T04:41:14.730Z,100454.19
2023-02-27T04:42:06.955Z,100434.59
2023-02-27T04:42:54.898Z,100451.72
2023-02-27T04:43:39.162Z,100443.50
2023-02-27T04:44:23.325Z,100445.44
2023-02-27T04:45:11.345Z,100463.03
2023-02-27T04:45:57.336Z,100460.97
2023-02-27T04:46:42.830Z,100445.00
2023-02-27T04:47:27.193Z,100452.63
2023-02-27T04:48:17.955Z,100452.44
2023-02-27T04:49:05.464Z,100464.22
2023-02-27T04:49:56.818Z,100461.38
2023-02-27T04:50:45.215Z,100458.75
2023-02-27T04:51:46.946Z,100465.53
2023-02-27T04:52:37.972Z,100466.56
2023-02-27T04:53:28.250Z,100469.16
2023-02-27T04:54:16.887Z,100440.81
2023-02-27T04:55:13.527Z,100463.41
2023-02-27T04:56:03.415Z,100455.31
2023-02-27T04:56:51.429Z,100459.88
2023-02-27T04:57:41.222Z,100477.72
2023-02-27T04:58:36.144Z,100404.53
2023-02-27T04:59:23.754Z,100467.31
2023-02-27T05:00:09.637Z,100470.09
2023-02-27T05:01:03.799Z,100472.03
2023-02-27T05:01:54.049Z,100468.50
2023-02-27T05:02:41.060Z,100473.97
2023-02-27T05:03:30.030Z,100473.44
2023-02-27T05:04:16.015Z,100433.38
2023-02-27T05:05:01.590Z,100451.41
2023-02-27T05:05:46.824Z,100441.16
2023-02-27T05:06:33.945Z,100488.75
2023-02-27T05:07:19.632Z,100464.50
2023-02-27T05:08:10.804Z,100471.47
2023-02-27T05:09:11.965Z,100457.72
2023-02-27T05:10:01.703Z,100442.75
2023-02-27T05:10:52.146Z,100461.59
2023-02-27T05:11:40.878Z,100375.13
2023-02-27T05:12:32.544Z,100467.94
2023-02-27T05:13:26.650Z,100461.97
2023-02-27T05:14:28.289Z,100473.31
2023-02-27T05:15:28.530Z,100464.59
2023-02-27T05:16:33.234Z,100471.47
2023-02-27T05:17:22.558Z,100474.16
2023-02-27T05:18:08.059Z,100477.75
2023-02-27T05:18:50.085Z,100450.91
2023-02-27T05:19:33.653Z,100383.84
2023-02-27T05:20:17.188Z,100487.06
2023-02-27T05:21:29.370Z,100471.47
2023-02-27T05:22:22.395Z,100453.25
2023-02-27T05:23:29.650Z,100457.22
2023-02-27T05:24:36.446Z,100480.53
2023-02-27T05:25:33.890Z,100481.47
2023-02-27T05:26:23.677Z,100468.47
2023-02-27T05:27:13.388Z,100478.84
2023-02-27T05:28:07.287Z,100476.25
2023-02-27T05:29:07.574Z,100468.47
2023-02-27T05:29:51.540Z,100474.59
2023-02-27T05:30:38.420Z,100471.97
2023-02-27T05:31:37.184Z,100466.41
2023-02-27T05:32:43.442Z,100465.94
2023-02-27T05:33:30.840Z,100446.09
2023-02-27T05:34:23.877Z,100455.09
2023-02-27T05:35:30.352Z,100476.84
2023-02-27T05:36:18.468Z,100388.84
2023-02-27T05:37:04.339Z,100480.19
2023-02-27T05:38:14.564Z,100473.97
2023-02-27T05:39:00.001Z,100469.22
2023-02-27T05:39:43.368Z,100484.72
2023-02-27T05:40:32.404Z,100335.63
2023-02-27T05:41:18.390Z,100339.81
2023-02-27T05:42:11.560Z,100456.75
2023-02-27T05:43:02.108Z,100463.63
2023-02-27T05:44:01.187Z,100485.31
2023-02-27T05:44:51.253Z,100403.81
2023-02-27T05:45:36.291Z,100459.28
2023-02-27T05:46:23.780Z,100481.66
2023-02-27T05:47:10.618Z,100474.78
2023-02-27T05:48:03.506Z,100485.19
2023-02-27T05:48:57.072Z,100481.03
2023-02-27T05:49:48.266Z,100492.97
2023-02-27T05:50:32.588Z,100488.75
2023-02-27T05:51:16.930Z,100486.84
2023-02-27T05:52:02.811Z,100481.03
2023-02-27T05:52:45.890Z,100494.56
2023-02-27T05:53:33.259Z,100503.22
2023-02-27T05:54:38.881Z,100490.22
2023-02-27T05:55:27.118Z,100494.47
2023-02-27T05:56:11.711Z,100499.78
2023-02-27T05:56:57.204Z,100487.69
2023-02-27T05:57:44.970Z,100499.84
2023-02-27T05:58:32.542Z,100495.69
2023-02-27T05:59:28.096Z,100502.47
2023-02-27T06:00:21.557Z,100486.03
2023-02-27T06:01:06.760Z,100492.97
2023-02-27T06:01:48.469Z,100481.94
2023-02-27T06:02:30.355Z,100472.44
2023-02-27T06:03:13.100Z,100483.50
2023-02-27T06:03:55.488Z,100499.22
2023-02-27T06:04:37.333Z,100471.69
2023-02-27T06:05:19.696Z,100487.50
2023-02-27T06:06:05.199Z,100476.53
2023-02-27T06:06:47.954Z,100469.00
2023-02-27T06:07:34.353Z,100498.28
2023-02-27T06:08:16.000Z,100479.78
2023-02-27T06:08:57.689Z,100324.28
2023-02-27T06:09:39.471Z,100465.56
2023-02-27T06:10:21.824Z,100503.59
2023-02-27T06:11:03.600Z,100490.59
2023-02-27T06:11:45.177Z,100486.03
2023-02-27T06:12:26.788Z,100501.06
2023-02-27T06:13:08.385Z,100497.63
2023-02-27T06:13:49.998Z,100512.47
2023-02-27T06:14:31.617Z,100471.03
2023-02-27T06:15:13.684Z,100474.47
2023-02-27T06:15:55.305Z,100499.47
2023-02-27T06:16:38.994Z,100498.63
2023-02-27T06:17:20.636Z,100505.44
2023-02-27T06:18:02.371Z,100502.06
2023-02-27T06:18:43.963Z,100500.50
2023-02-27T06:19:25.841Z,100418.88
2023-02-27T06:20:08.347Z,100416.13
2023-02-27T06:20:50.202Z,100495.50
2023-02-27T06:21:32.525Z,100510.97
2023-02-27T06:22:14.293Z,100507.44
2023-02-27T06:22:55.925Z,100513.41
2023-02-27T06:23:37.547Z,100503.00
2023-02-27T06:24:21.198Z,100499.84
2023-02-27T06:25:04.128Z,100518.59
2023-02-27T06:25:45.761Z,100506.53
2023-02-27T06:26:28.699Z,100442.19
2023-02-27T06:27:10.437Z,100483.94
2023-02-27T06:27:52.337Z,100494.81
2023-02-27T06:28:34.001Z,100517.00
2023-02-27T06:29:15.656Z,100513.56
2023-02-27T06:29:57.670Z,100479.53
2023-02-27T06:30:39.403Z,100509.59
2023-02-27T06:31:21.106Z,100511.09
2023-02-27T06:32:02.720Z,100514.59
2023-02-27T06:32:44.351Z,100509.41
2023-02-27T06:33:25.993Z,100510.41
2023-02-27T06:34:07.640Z,100489.00
2023-02-27T06:34:49.205Z,100509.50
2023-02-27T06:35:31.165Z,100517.09
2023-02-27T06:36:12.776Z,100515.25
2023-02-27T06:36:54.396Z,100508.38
2023-02-27T06:37:36.059Z,100511.09
2023-02-27T06:38:17.796Z,100465.16
2023-02-27T06:38:59.645Z,100516.47
2023-02-27T06:39:41.388Z,100501.13
2023-02-27T06:40:22.951Z,100516.84
2023-02-27T06:41:04.791Z,100520.94
2023-02-27T06:41:46.472Z,100516.50
2023-02-27T06:42:28.423Z,100523.25
2023-02-27T06:43:10.146Z,100515.38
2023-02-27T06:43:52.039Z,100502.44
2023-02-27T06:44:33.694Z,100504.50
2023-02-27T06:45:16.671Z,100520.47
2023-02-27T06:45:58.307Z,100494.91
2023-02-27T06:46:39.892Z,100523.09
2023-02-27T06:47:21.541Z,100524.75
2023-02-27T06:48:03.271Z,100542.13
2023-02-27T06:48:45.575Z,100528.13
2023-02-27T06:49:27.181Z,100525.13
2023-02-27T06:50:11.242Z,100532.31
2023-02-27T06:50:54.029Z,100535.75
2023-02-27T06:51:35.866Z,100531.47
2023-02-27T06:52:17.539Z,100539.34
2023-02-27T06:52:59.110Z,100540.34
2023-02-27T06:53:41.670Z,100537.75
2023-02-27T06:54:23.389Z,100535.16
2023-02-27T06:55:07.112Z,100466.53
2023-02-27T06:55:49.425Z,100538.69
2023-02-27T06:56:31.072Z,100536.00
2023-02-27T06:57:12.715Z,100517.69
2023-02-27T06:57:54.344Z,100535.16
2023-02-27T06:58:35.933Z,100542.03
2023-02-27T06:59:18.157Z,100527.81
2023-02-27T06:59:59.816Z,100506.97
2023-02-27T07:00:41.744Z,100538.44
2023-02-27T07:01:24.795Z,100542.69
2023-02-27T07:02:06.534Z,100497.59
2023-02-27T07:02:48.300Z,100550.59
2023-02-27T07:03:29.968Z,100536.91
2023-02-27T07:04:15.265Z,100552.25
2023-02-27T07:04:57.559Z,100535.41
2023-02-27T07:05:41.342Z,100498.69
2023-02-27T07:07:31.110Z,100553.84
2023-02-27T07:07:34.108Z,100503.00
2023-02-27T07:08:18.913Z,100558.84
2023-02-27T07:09:06.688Z,100557.19
2023-02-27T07:09:48.982Z,100476.22
2023-02-27T07:10:30.905Z,100555.63
2023-02-27T07:11:12.566Z,100543.78
2023-02-27T07:11:54.293Z,100543.88
2023-02-27T07:12:36.046Z,100528.06
2023-02-27T07:13:19.527Z,100558.00
2023-02-27T07:14:01.442Z,100559.59
2023-02-27T07:14:43.071Z,100545.75
2023-02-27T07:15:24.915Z,100561.28
2023-02-27T07:16:06.943Z,100529.78
2023-02-27T07:16:54.728Z,100545.69
2023-02-27T07:17:36.472Z,100474.38
2023-02-27T07:18:18.216Z,100516.22
2023-02-27T07:18:59.827Z,100570.66
2023-02-27T07:19:41.490Z,100553.78
2023-02-27T07:20:23.627Z,100557.75
2023-02-27T07:21:05.472Z,100537.78
2023-02-27T07:21:47.161Z,100562.59
2023-02-27T07:22:31.830Z,100553.84
2023-02-27T07:23:13.463Z,100557.28
2023-02-27T07:23:55.241Z,100533.59
2023-02-27T07:24:36.984Z,100557.97
2023-02-27T07:25:18.828Z,100552.59
2023-02-27T07:26:00.557Z,100539.28
2023-02-27T07:26:42.554Z,100552.50
2023-02-27T07:27:24.225Z,100555.09
2023-02-27T07:28:06.061Z,100562.91
2023-02-27T07:28:47.697Z,100522.00
2023-02-27T07:29:29.367Z,100571.06
2023-02-27T07:30:11.844Z,100562.34
2023-02-27T07:30:55.652Z,100579.81
2023-02-27T07:31:37.396Z,100558.25
2023-02-27T07:32:19.112Z,100545.03
2023-02-27T07:33:00.786Z,100556.41
2023-02-27T07:33:42.395Z,100560.66
2023-02-27T07:34:24.019Z,100565.69
2023-02-27T07:35:06.477Z,100567.38
2023-02-27T07:35:48.902Z,100556.75
2023-02-27T07:36:31.514Z,100490.31
2023-02-27T07:37:13.145Z,100537.63
2023-02-27T07:37:54.753Z,100568.28
2023-02-27T07:38:36.450Z,100492.28
2023-02-27T07:39:18.086Z,100561.63
2023-02-27T07:39:59.732Z,100544.41
2023-02-27T07:40:42.036Z,100559.81
2023-02-27T07:41:30.435Z,100510.75
2023-02-27T07:42:15.010Z,100559.34
2023-02-27T07:42:56.583Z,100503.78
2023-02-27T07:43:38.221Z,100561.59
2023-02-27T07:44:19.829Z,100540.84
2023-02-27T07:45:01.618Z,100568.06
2023-02-27T07:45:43.291Z,100535.28
2023-02-27T07:46:27.474Z,100562.31
2023-02-27T07:47:09.420Z,100562.97
2023-02-27T07:47:51.053Z,100574.28
2023-02-27T07:48:33.757Z,100550.81
2023-02-27T07:49:15.337Z,100553.47
2023-02-27T07:49:57.060Z,100568.16
2023-02-27T07:50:38.721Z,100493.84
2023-02-27T07:51:20.685Z,100554.75
2023-02-27T07:52:02.624Z,100537.19
2023-02-27T07:52:44.564Z,100563.06
2023-02-27T07:53:26.595Z,100564.47
2023-02-27T07:54:08.276Z,100570.31
2023-02-27T07:54:49.929Z,100572.09
2023-02-27T07:55:31.567Z,100574.38
2023-02-27T07:56:13.949Z,100527.06
2023-02-27T07:56:55.566Z,100574.28
2023-02-27T07:57:37.789Z,100553.09
2023-02-27T07:58:19.363Z,100571.59
2023-02-27T07:59:01.025Z,100575.66
2023-02-27T07:59:42.584Z,100566.47
2023-02-27T08:00:25.942Z,100578.69
2023-02-27T08:01:07.899Z,100574.50
2023-02-27T08:01:49.578Z,100566.78
2023-02-27T08:02:31.311Z,100581.50
2023-02-27T08:03:13.558Z,100587.25
2023-02-27T08:03:56.513Z,100577.34
2023-02-27T08:04:38.222Z,100570.34
2023-02-27T08:05:19.889Z,100547.56
2023-02-27T08:06:02.434Z,100550.28
2023-02-27T08:06:44.661Z,100577.41
2023-02-27T08:07:26.333Z,100546.56
2023-02-27T08:08:07.952Z,100574.84
2023-02-27T08:08:50.226Z,100586.63
2023-02-27T08:09:31.925Z,100575.44
2023-02-27T08:10:16.167Z,100569.75
2023-02-27T08:10:58.536Z,100572.19
2023-02-27T08:11:40.219Z,100567.25
2023-02-27T08:12:22.312Z,100534.34
2023-02-27T08:13:03.988Z,100549.88
2023-02-27T08:14:02.759Z,100567.91
2023-02-27T08:14:44.797Z,100577.09
2023-02-27T08:15:26.508Z,100551.84
2023-02-27T08:16:11.153Z,100560.06
2023-02-27T08:16:52.786Z,100557.00
2023-02-27T08:17:34.550Z,100576.09
2023-02-27T08:18:16.279Z,100524.22
2023-02-27T08:18:58.084Z,100589.97
2023-02-27T08:19:39.841Z,100565.84
2023-02-27T08:20:22.695Z,100581.13
2023-02-27T08:21:07.338Z,100582.31
2023-02-27T08:21:48.984Z,100585.94
2023-02-27T08:22:30.979Z,100575.50
2023-02-27T08:23:12.666Z,100558.75
2023-02-27T08:23:54.505Z,100570.81
2023-02-27T08:24:36.151Z,100585.84
2023-02-27T08:25:17.902Z,100559.16
2023-02-27T08:25:59.505Z,100577.38
2023-02-27T08:26:41.188Z,100578.47
2023-02-27T08:27:22.879Z,100572.53
2023-02-27T08:28:04.658Z,100588.72
2023-02-27T08:28:46.398Z,100588.97
2023-02-27T08:29:28.566Z,100591.69
2023-02-27T08:30:12.188Z,100592.75
2023-02-27T08:30:54.922Z,100579.88
2023-02-27T08:31:36.650Z,100559.41
2023-02-27T08:32:18.400Z,100551.78
2023-02-27T08:33:00.147Z,100576.91
2023-02-27T08:33:41.790Z,100580.88
2023-02-27T08:34:23.471Z,100590.13
2023-02-27T08:35:05.890Z,100596.06
2023-02-27T08:35:47.706Z,100580.69
2023-02-27T08:36:29.710Z,100552.97
2023-02-27T08:37:11.505Z,100588.34
2023-02-27T08:37:53.152Z,100582.50
2023-02-27T08:38:34.805Z,100553.41
2023-02-27T08:39:17.767Z,100573.94
2023-02-27T08:39:59.429Z,100582.38
2023-02-27T08:40:41.122Z,100566.53
2023-02-27T08:41:22.780Z,100593.03
2023-02-27T08:42:04.584Z,100584.25
2023-02-27T08:42:46.187Z,100578.97
2023-02-27T08:43:27.874Z,100579.09
2023-02-27T08:44:11.945Z,100578.16
2023-02-27T08:44:53.597Z,100590.16
2023-02-27T08:45:35.301Z,100601.41
2023-02-27T08:46:17.024Z,100576.44
2023-02-27T08:46:58.913Z,100590.34
2023-02-27T08:47:40.545Z,100596.28
2023-02-27T08:48:24.288Z,100595.66
2023-02-27T08:49:05.972Z,100580.91
2023-02-27T08:49:47.626Z,100580.66
2023-02-27T08:50:29.302Z,100577.09
2023-02-27T08:51:11.016Z,100583.03
2023-02-27T08:51:53.462Z,100595.00
2023-02-27T08:52:35.102Z,100581.91